Time;durP1;ratioP1;P1;durP2;ratioP2;P2;SDS_P1;SDS_P2;PMS_P1;PMS_P2;Temp;Humidity;BMP_temperature;BMP_pressure;BME280_temperature;BME280_humidity;BME280_pressure;Samples;Min_cycle;Max_cycle;Signal;HPM_P1;HPM_P2
2023/08/07 00:02:22;;;;;;;1.25;0.70;;;;;;;;;;5053499;28;20055;-82
2023/08/07 00:04:48;;;;;;;2.15;1.17;;;;;;;;;;5035229;28;20499;-82
2023/08/07 00:07:13;;;;;;;1.52;0.77;;;;;;;;;;5052141;28;20029;-82
2023/08/07 00:09:39;;;;;;;2.33;0.57;;;;;;;;;;5053294;28;20053;-82
2023/08/07 00:12:04;;;;;;;2.40;0.80;;;;;;;;;;5051723;28;20472;-82
2023/08/07 00:14:30;;;;;;;1.55;0.90;;;;;;;;;;5055783;28;20040;-82
2023/08/07 00:16:55;;;;;;;1.90;0.90;;;;;;;;;;5057009;28;20029;-82
2023/08/07 00:19:20;;;;;;;2.13;0.73;;;;;;;;;;5057028;28;20468;-82
2023/08/07 00:21:46;;;;;;;1.60;0.90;;;;;;;;;;5057018;28;20029;-82
2023/08/07 00:24:11;;;;;;;1.85;0.60;;;;;;;;;;5055557;28;20063;-82
2023/08/07 00:26:36;;;;;;;2.33;1.02;;;;;;;;;;5055655;28;20031;-82
2023/08/07 00:29:02;;;;;;;2.53;1.00;;;;;;;;;;5056842;28;20029;-82
2023/08/07 00:31:30;;;;;;;1.33;0.70;;;;;;;;;;5055620;28;20051;-82
2023/08/07 00:33:57;;;;;;;1.80;0.90;;;;;;;;;;5057011;28;20433;-81
2023/08/07 00:36:22;;;;;;;12.45;1.00;;;;;;;;;;5055899;28;20112;-81
2023/08/07 00:38:47;;;;;;;1.92;0.80;;;;;;;;;;5055995;28;20108;-82
2023/08/07 00:41:13;;;;;;;1.83;0.90;;;;;;;;;;5055636;28;20090;-82
2023/08/07 00:43:38;;;;;;;1.25;0.70;;;;;;;;;;5055283;28;20029;-82
2023/08/07 00:46:03;;;;;;;1.65;0.70;;;;;;;;;;5056836;28;20459;-82
2023/08/07 00:48:29;;;;;;;1.45;0.80;;;;;;;;;;5056563;28;20025;-82
2023/08/07 00:50:55;;;;;;;2.15;0.93;;;;;;;;;;5038473;28;20043;-82
2023/08/07 00:53:20;;;;;;;2.65;0.93;;;;;;;;;;5056930;28;20029;-82
2023/08/07 00:55:46;;;;;;;2.22;1.00;;;;;;;;;;5056362;28;20040;-82
2023/08/07 00:58:12;;;;;;;2.67;1.00;;;;;;;;;;5056345;28;20120;-82
2023/08/07 01:00:37;;;;;;;2.30;1.00;;;;;;;;;;5038245;28;20029;-82
2023/08/07 01:03:06;;;;;;;2.22;1.10;;;;;;;;;;5055272;28;20388;-82
2023/08/07 01:05:31;;;;;;;3.67;1.20;;;;;;;;;;5056495;28;20021;-83
2023/08/07 01:07:57;;;;;;;1.90;1.00;;;;;;;;;;5055025;28;20451;-83
2023/08/07 01:10:46;;;;;;;3.42;1.30;;;;;;;;;;5054920;28;20033;-83
2023/08/07 01:13:37;;;;;;;1.55;0.88;;;;;;;;;;5055545;28;20500;-83
2023/08/07 01:16:10;;;;;;;1.83;0.80;;;;;;;;;;5055077;28;20408;-83
2023/08/07 01:18:36;;;;;;;3.85;1.35;;;;;;;;;;5038127;28;20108;-82
2023/08/07 01:21:03;;;;;;;2.03;1.17;;;;;;;;;;5055257;28;20065;-82
2023/08/07 01:23:28;;;;;;;1.83;0.73;;;;;;;;;;5056435;28;20076;-82
2023/08/07 01:25:54;;;;;;;1.73;1.00;;;;;;;;;;5054949;28;20025;-82
2023/08/07 01:28:28;;;;;;;2.40;0.82;;;;;;;;;;5054445;28;20055;-82
2023/08/07 01:30:55;;;;;;;2.45;1.42;;;;;;;;;;5054270;28;20495;-82
2023/08/07 01:33:32;;;;;;;1.40;0.90;;;;;;;;;;5037810;28;20126;-82
2023/08/07 01:36:01;;;;;;;2.25;1.10;;;;;;;;;;5037685;28;20121;-82
2023/08/07 01:38:27;;;;;;;2.63;1.33;;;;;;;;;;5055017;28;20471;-82
2023/08/07 01:40:53;;;;;;;1.65;1.10;;;;;;;;;;5054228;28;20484;-82
2023/08/07 01:43:19;;;;;;;1.75;0.90;;;;;;;;;;5054809;28;20118;-82
2023/08/07 01:45:44;;;;;;;2.47;1.13;;;;;;;;;;5037645;28;20033;-82
2023/08/07 01:48:11;;;;;;;3.55;1.23;;;;;;;;;;5054364;28;20021;-83
2023/08/07 01:50:38;;;;;;;4.25;1.40;;;;;;;;;;5054869;28;20475;-83
2023/08/07 01:53:03;;;;;;;4.22;1.35;;;;;;;;;;5054128;28;20096;-82
2023/08/07 01:55:28;;;;;;;2.53;1.20;;;;;;;;;;5054534;28;20080;-82
2023/08/07 01:57:54;;;;;;;3.63;1.30;;;;;;;;;;5053995;28;20056;-83
2023/08/07 02:00:20;;;;;;;1.88;1.02;;;;;;;;;;5055396;28;20519;-82
2023/08/07 02:02:46;;;;;;;2.70;1.33;;;;;;;;;;5055409;28;20108;-82
2023/08/07 02:05:12;;;;;;;4.40;1.48;;;;;;;;;;5055440;28;20025;-82
2023/08/07 02:07:37;;;;;;;5.00;1.35;;;;;;;;;;5053782;28;20541;-83
2023/08/07 02:10:03;;;;;;;2.65;1.23;;;;;;;;;;5053727;28;20029;-83
2023/08/07 02:12:31;;;;;;;3.50;1.27;;;;;;;;;;5055499;28;20098;-83
2023/08/07 02:14:58;;;;;;;2.35;0.90;;;;;;;;;;5054944;28;20033;-82
2023/08/07 02:17:24;;;;;;;3.10;1.10;;;;;;;;;;5055497;28;20108;-83
2023/08/07 02:19:50;;;;;;;1.25;1.00;;;;;;;;;;5055096;28;20021;-82
2023/08/07 02:22:15;;;;;;;1.70;1.02;;;;;;;;;;5053521;28;20036;-82
2023/08/07 02:24:40;;;;;;;3.63;1.23;;;;;;;;;;5053766;28;20040;-82
2023/08/07 02:27:06;;;;;;;3.08;1.20;;;;;;;;;;5053427;28;20043;-82
2023/08/07 02:29:34;;;;;;;1.65;0.95;;;;;;;;;;5054888;28;20029;-82
2023/08/07 02:32:02;;;;;;;5.38;1.20;;;;;;;;;;5054734;28;20052;-82
2023/08/07 02:34:30;;;;;;;2.83;1.17;;;;;;;;;;5053390;28;20029;-82
2023/08/07 02:36:56;;;;;;;3.08;1.42;;;;;;;;;;5055042;28;20478;-82
2023/08/07 02:39:22;;;;;;;2.58;1.20;;;;;;;;;;5053215;28;20118;-82
2023/08/07 02:41:47;;;;;;;2.10;1.20;;;;;;;;;;5036755;28;20020;-82
2023/08/07 02:44:13;;;;;;;1.98;1.00;;;;;;;;;;5053420;28;20036;-82
2023/08/07 02:46:38;;;;;;;4.20;1.13;;;;;;;;;;5054294;28;20048;-82
2023/08/07 02:49:04;;;;;;;3.63;1.10;;;;;;;;;;5054525;28;20052;-83
2023/08/07 02:51:30;;;;;;;2.50;1.25;;;;;;;;;;5052783;28;20387;-82
2023/08/07 02:53:55;;;;;;;3.65;1.35;;;;;;;;;;5054388;28;20021;-82
2023/08/07 02:56:21;;;;;;;4.25;1.50;;;;;;;;;;5054381;28;20052;-82
2023/08/07 02:58:46;;;;;;;3.40;1.40;;;;;;;;;;5054347;28;20541;-82
2023/08/07 03:01:11;;;;;;;3.95;1.20;;;;;;;;;;5053009;28;20082;-82
2023/08/07 03:03:37;;;;;;;2.33;1.20;;;;;;;;;;5053932;28;20029;-82
2023/08/07 03:06:03;;;;;;;2.42;0.85;;;;;;;;;;5054152;28;20491;-82
2023/08/07 03:08:28;;;;;;;1.55;1.00;;;;;;;;;;5053235;28;20059;-82
2023/08/07 03:10:55;;;;;;;1.83;1.02;;;;;;;;;;5052581;28;20036;-82
2023/08/07 03:13:21;;;;;;;4.32;1.20;;;;;;;;;;5052890;28;20029;-82
2023/08/07 03:15:49;;;;;;;1.73;1.10;;;;;;;;;;5035853;28;20039;-82
2023/08/07 03:18:14;;;;;;;2.20;1.23;;;;;;;;;;5053674;28;20033;-82
2023/08/07 03:20:40;;;;;;;1.67;1.02;;;;;;;;;;5053885;28;20033;-82
2023/08/07 03:23:05;;;;;;;2.53;1.00;;;;;;;;;;5052954;28;20108;-82
2023/08/07 03:25:30;;;;;;;2.17;1.08;;;;;;;;;;5053186;28;20083;-82
2023/08/07 03:27:56;;;;;;;1.98;1.00;;;;;;;;;;5053759;28;20455;-82
2023/08/07 03:30:21;;;;;;;3.17;1.00;;;;;;;;;;5052281;28;20057;-82
2023/08/07 03:32:47;;;;;;;1.73;0.80;;;;;;;;;;5052096;28;20472;-83
2023/08/07 03:35:12;;;;;;;1.45;0.98;;;;;;;;;;5053970;28;20029;-83
2023/08/07 03:37:37;;;;;;;1.80;1.10;;;;;;;;;;5053631;28;20040;-83
2023/08/07 03:40:03;;;;;;;3.75;1.10;;;;;;;;;;5053404;28;20036;-83
2023/08/07 03:42:28;;;;;;;1.90;1.10;;;;;;;;;;5053583;28;20036;-82
2023/08/07 03:44:54;;;;;;;3.05;1.08;;;;;;;;;;5052378;28;20106;-83
2023/08/07 03:47:19;;;;;;;1.63;0.95;;;;;;;;;;5051829;28;20025;-82
2023/08/07 03:49:45;;;;;;;1.88;0.95;;;;;;;;;;5053142;28;20025;-83
2023/08/07 03:52:10;;;;;;;1.10;1.00;;;;;;;;;;5051964;28;20061;-83
2023/08/07 03:54:36;;;;;;;1.35;1.00;;;;;;;;;;5051938;28;20484;-83
2023/08/07 03:57:02;;;;;;;2.15;0.80;;;;;;;;;;5053681;28;20444;-82
2023/08/07 03:59:27;;;;;;;1.95;0.90;;;;;;;;;;5051946;28;20060;-83
2023/08/07 04:01:52;;;;;;;1.27;0.85;;;;;;;;;;5051802;28;20475;-83
2023/08/07 04:04:18;;;;;;;1.67;0.75;;;;;;;;;;5052135;28;20051;-82
2023/08/07 04:06:43;;;;;;;1.20;1.00;;;;;;;;;;5052340;28;20033;-82
2023/08/07 04:09:10;;;;;;;2.28;1.10;;;;;;;;;;5052008;28;20078;-82
2023/08/07 04:11:36;;;;;;;1.65;1.00;;;;;;;;;;5052152;28;20392;-83
2023/08/07 04:14:01;;;;;;;1.95;0.80;;;;;;;;;;5035298;28;20395;-83
2023/08/07 04:16:27;;;;;;;1.52;1.10;;;;;;;;;;5051894;28;20035;-82
2023/08/07 04:18:52;;;;;;;2.20;1.10;;;;;;;;;;5053088;28;20025;-82
2023/08/07 04:21:18;;;;;;;1.52;0.85;;;;;;;;;;5053370;28;20033;-82
2023/08/07 04:23:43;;;;;;;2.38;1.10;;;;;;;;;;5052148;28;20082;-82
2023/08/07 04:26:08;;;;;;;3.65;1.42;;;;;;;;;;5053319;28;20098;-82
2023/08/07 04:28:34;;;;;;;1.40;0.98;;;;;;;;;;5051747;28;20411;-82
2023/08/07 04:30:59;;;;;;;2.30;1.25;;;;;;;;;;5053022;28;20049;-82
2023/08/07 04:33:24;;;;;;;1.88;1.35;;;;;;;;;;5051931;28;20041;-82
2023/08/07 04:35:50;;;;;;;2.72;1.17;;;;;;;;;;5053028;28;20082;-82
2023/08/07 04:38:16;;;;;;;2.78;1.10;;;;;;;;;;5051953;28;20033;-82
2023/08/07 04:40:51;;;;;;;4.05;1.30;;;;;;;;;;5051429;28;20040;-82
2023/08/07 04:43:18;;;;;;;2.30;1.15;;;;;;;;;;5052955;28;20025;-82
2023/08/07 04:45:44;;;;;;;2.72;1.10;;;;;;;;;;5051507;28;20020;-82
2023/08/07 04:48:11;;;;;;;3.97;1.20;;;;;;;;;;5051826;28;20017;-82
2023/08/07 04:50:36;;;;;;;1.67;1.25;;;;;;;;;;5051650;28;20388;-82
2023/08/07 04:53:02;;;;;;;1.48;1.02;;;;;;;;;;5052570;28;20032;-82
2023/08/07 04:55:27;;;;;;;2.28;1.10;;;;;;;;;;5052689;28;20029;-82
2023/08/07 04:57:54;;;;;;;3.08;1.23;;;;;;;;;;5051737;28;20494;-82
2023/08/07 05:00:21;;;;;;;2.47;1.30;;;;;;;;;;5036638;28;20028;-81
2023/08/07 05:02:47;;;;;;;2.83;1.30;;;;;;;;;;5055381;28;20460;-82
2023/08/07 05:05:14;;;;;;;1.73;1.00;;;;;;;;;;5055303;28;20029;-81
2023/08/07 05:07:40;;;;;;;3.70;1.40;;;;;;;;;;5056188;28;20052;-82
2023/08/07 05:10:06;;;;;;;4.78;1.05;;;;;;;;;;5038312;28;20082;-81
2023/08/07 05:12:31;;;;;;;2.17;1.30;;;;;;;;;;5054778;28;20033;-82
2023/08/07 05:14:56;;;;;;;2.78;1.52;;;;;;;;;;5056207;28;20029;-82
2023/08/07 05:17:22;;;;;;;4.10;1.23;;;;;;;;;;5038281;28;20059;-81
2023/08/07 05:19:47;;;;;;;3.53;1.50;;;;;;;;;;5055468;28;20141;-81
2023/08/07 05:22:13;;;;;;;2.55;1.10;;;;;;;;;;5054792;28;20033;-82
2023/08/07 05:24:38;;;;;;;4.40;1.38;;;;;;;;;;5055161;28;20033;-82
2023/08/07 05:27:08;;;;;;;2.65;1.30;;;;;;;;;;5055965;28;20083;-83
2023/08/07 05:29:34;;;;;;;4.30;1.77;;;;;;;;;;5037921;28;20028;-83
2023/08/07 05:32:00;;;;;;;3.33;1.50;;;;;;;;;;5055923;28;20041;-82
2023/08/07 05:34:25;;;;;;;1.95;1.17;;;;;;;;;;5054563;28;20541;-82
2023/08/07 05:36:50;;;;;;;5.90;1.10;;;;;;;;;;5054791;28;20037;-82
2023/08/07 05:39:16;;;;;;;2.50;1.35;;;;;;;;;;5037874;28;20392;-83
2023/08/07 05:41:41;;;;;;;2.90;1.23;;;;;;;;;;5037930;28;20036;-82
2023/08/07 05:44:07;;;;;;;5.10;1.73;;;;;;;;;;5054809;28;20479;-82
2023/08/07 05:46:32;;;;;;;1.80;1.10;;;;;;;;;;5054389;28;20179;-83
2023/08/07 05:48:57;;;;;;;1.67;1.23;;;;;;;;;;5054328;28;20033;-83
2023/08/07 05:51:23;;;;;;;3.35;1.48;;;;;;;;;;5055606;28;20450;-82
2023/08/07 05:53:48;;;;;;;5.90;1.50;;;;;;;;;;5037562;28;20025;-83
2023/08/07 05:56:14;;;;;;;4.47;1.30;;;;;;;;;;5055939;28;20035;-82
2023/08/07 05:58:39;;;;;;;3.03;1.30;;;;;;;;;;5054495;28;20036;-82
2023/08/07 06:01:05;;;;;;;6.38;1.40;;;;;;;;;;5055362;28;20468;-82
2023/08/07 06:03:31;;;;;;;3.63;1.10;;;;;;;;;;5054272;28;20021;-82
2023/08/07 06:05:57;;;;;;;1.70;1.13;;;;;;;;;;5054086;28;20029;-82
2023/08/07 06:08:22;;;;;;;2.60;1.00;;;;;;;;;;5054236;28;20094;-82
2023/08/07 06:10:47;;;;;;;2.08;1.25;;;;;;;;;;5055089;28;20048;-82
2023/08/07 06:13:13;;;;;;;2.88;1.23;;;;;;;;;;5054142;28;20033;-84
2023/08/07 06:15:38;;;;;;;3.30;1.45;;;;;;;;;;5053727;28;20033;-83
2023/08/07 06:18:03;;;;;;;2.58;1.38;;;;;;;;;;5054084;28;20480;-82
2023/08/07 06:20:29;;;;;;;2.10;1.10;;;;;;;;;;5053693;28;20503;-82
2023/08/07 06:22:54;;;;;;;4.45;1.38;;;;;;;;;;5053635;28;20032;-82
2023/08/07 06:25:20;;;;;;;4.05;1.50;;;;;;;;;;5053711;28;20047;-82
2023/08/07 06:27:45;;;;;;;2.28;1.30;;;;;;;;;;5054986;28;20495;-82
2023/08/07 06:30:11;;;;;;;2.53;1.40;;;;;;;;;;5054356;28;20025;-82
2023/08/07 06:32:36;;;;;;;4.13;1.80;;;;;;;;;;5053437;28;20041;-82
2023/08/07 06:35:04;;;;;;;4.38;1.60;;;;;;;;;;5054030;28;20035;-83
2023/08/07 06:37:29;;;;;;;3.80;1.70;;;;;;;;;;5053699;28;20021;-83
2023/08/07 06:39:55;;;;;;;1.30;1.10;;;;;;;;;;5053451;28;20039;-82
2023/08/07 06:42:20;;;;;;;3.47;1.73;;;;;;;;;;5055142;28;20036;-82
2023/08/07 06:44:46;;;;;;;3.20;1.38;;;;;;;;;;5053348;28;20037;-82
2023/08/07 06:47:11;;;;;;;3.33;1.40;;;;;;;;;;5036519;28;20033;-82
2023/08/07 06:49:37;;;;;;;3.30;1.20;;;;;;;;;;5053450;28;20556;-82
2023/08/07 06:52:03;;;;;;;5.57;1.30;;;;;;;;;;5053217;28;20036;-82
2023/08/07 06:54:28;;;;;;;2.97;1.52;;;;;;;;;;5036373;28;20043;-82
2023/08/07 06:56:53;;;;;;;3.38;1.38;;;;;;;;;;5054228;28;20032;-82
2023/08/07 06:59:19;;;;;;;1.98;1.20;;;;;;;;;;5052986;28;20033;-82
2023/08/07 07:01:44;;;;;;;4.68;1.60;;;;;;;;;;5054444;28;20021;-82
2023/08/07 07:04:09;;;;;;;2.08;1.27;;;;;;;;;;5054245;28;20105;-81
2023/08/07 07:06:37;;;;;;;3.28;1.33;;;;;;;;;;5053105;28;20483;-82
2023/08/07 07:09:02;;;;;;;4.03;1.50;;;;;;;;;;5054274;28;20108;-82
2023/08/07 07:11:27;;;;;;;2.50;1.40;;;;;;;;;;5053954;28;20460;-82
2023/08/07 07:13:53;;;;;;;2.60;1.45;;;;;;;;;;5054256;28;20420;-83
2023/08/07 07:16:21;;;;;;;4.93;1.58;;;;;;;;;;5054167;28;20060;-82
2023/08/07 07:18:47;;;;;;;2.97;1.48;;;;;;;;;;5036311;28;20479;-83
2023/08/07 07:21:12;;;;;;;3.95;1.77;;;;;;;;;;5052922;28;20047;-83
2023/08/07 07:23:37;;;;;;;2.80;1.20;;;;;;;;;;5052268;28;20067;-82
2023/08/07 07:26:03;;;;;;;3.95;1.55;;;;;;;;;;5054040;28;20032;-82
2023/08/07 07:28:28;;;;;;;3.63;1.45;;;;;;;;;;5052545;28;20041;-82
2023/08/07 07:30:53;;;;;;;3.25;1.60;;;;;;;;;;5053545;28;20057;-82
2023/08/07 07:33:19;;;;;;;3.92;1.70;;;;;;;;;;5052272;28;20029;-82
2023/08/07 07:35:44;;;;;;;3.25;1.73;;;;;;;;;;5052397;28;20099;-82
2023/08/07 07:38:10;;;;;;;3.97;1.50;;;;;;;;;;5053553;28;20036;-82
2023/08/07 07:40:36;;;;;;;5.80;1.67;;;;;;;;;;5052316;28;20037;-82
2023/08/07 07:43:02;;;;;;;1.70;1.30;;;;;;;;;;5052230;28;20021;-83
2023/08/07 07:45:27;;;;;;;2.88;1.38;;;;;;;;;;5053457;28;20036;-83
2023/08/07 07:47:53;;;;;;;2.85;1.35;;;;;;;;;;5052279;28;20043;-82
2023/08/07 07:50:18;;;;;;;2.83;1.40;;;;;;;;;;5052254;28;20115;-82
2023/08/07 07:52:43;;;;;;;3.40;1.67;;;;;;;;;;5035640;28;20025;-82
2023/08/07 07:55:09;;;;;;;2.70;1.60;;;;;;;;;;5053324;28;20036;-82
2023/08/07 07:57:35;;;;;;;3.53;1.42;;;;;;;;;;5035617;28;20029;-83
2023/08/07 08:00:01;;;;;;;6.38;1.88;;;;;;;;;;5052345;28;20365;-83
2023/08/07 08:02:26;;;;;;;3.22;1.50;;;;;;;;;;5035631;28;20040;-82
2023/08/07 08:04:52;;;;;;;2.20;1.40;;;;;;;;;;5052078;28;20377;-82
2023/08/07 08:07:17;;;;;;;2.88;1.38;;;;;;;;;;5052134;28;20021;-82
2023/08/07 08:09:43;;;;;;;3.17;1.30;;;;;;;;;;5052571;28;20510;-82
2023/08/07 08:12:08;;;;;;;2.55;1.30;;;;;;;;;;5052011;28;20120;-83
2023/08/07 08:14:34;;;;;;;3.55;1.77;;;;;;;;;;5035521;28;20483;-84
2023/08/07 08:16:59;;;;;;;4.00;1.67;;;;;;;;;;5052039;28;20029;-84
2023/08/07 08:19:24;;;;;;;3.53;1.75;;;;;;;;;;5053699;28;20464;-84
2023/08/07 08:21:50;;;;;;;2.20;1.27;;;;;;;;;;5052238;28;20091;-84
2023/08/07 08:24:15;;;;;;;1.88;1.20;;;;;;;;;;5052252;28;20041;-84
2023/08/07 08:26:41;;;;;;;3.25;1.85;;;;;;;;;;5052268;28;20029;-84
2023/08/07 08:29:07;;;;;;;4.28;1.63;;;;;;;;;;5052746;28;20441;-83
2023/08/07 08:31:34;;;;;;;3.92;1.50;;;;;;;;;;5052269;28;20128;-84
2023/08/07 08:33:59;;;;;;;3.83;1.42;;;;;;;;;;5052732;28;20090;-83
2023/08/07 08:36:25;;;;;;;2.88;1.40;;;;;;;;;;5055485;28;20029;-85
2023/08/07 08:38:51;;;;;;;1.60;1.10;;;;;;;;;;5056745;28;20056;-83
2023/08/07 08:41:17;;;;;;;3.35;1.70;;;;;;;;;;5039987;28;20083;-84
2023/08/07 08:43:43;;;;;;;3.25;1.48;;;;;;;;;;5039835;28;20029;-84
2023/08/07 08:46:08;;;;;;;3.65;1.95;;;;;;;;;;5040026;28;20445;-85
2023/08/07 08:48:35;;;;;;;3.83;1.52;;;;;;;;;;5056434;28;20476;-84
2023/08/07 08:51:02;;;;;;;3.05;1.48;;;;;;;;;;5056325;28;20117;-85
2023/08/07 08:53:27;;;;;;;3.20;1.45;;;;;;;;;;5056384;28;20028;-84
2023/08/07 08:55:53;;;;;;;5.82;1.38;;;;;;;;;;5039888;28;20033;-83
2023/08/07 08:58:20;;;;;;;3.17;1.30;;;;;;;;;;5056982;28;20043;-83
2023/08/07 09:00:45;;;;;;;1.92;1.08;;;;;;;;;;5056437;28;20056;-83
2023/08/07 09:03:11;;;;;;;3.55;1.58;;;;;;;;;;5062227;28;20033;-83
2023/08/07 09:05:37;;;;;;;5.15;1.52;;;;;;;;;;5031015;28;20044;-83
2023/08/07 09:08:03;;;;;;;2.72;1.50;;;;;;;;;;5066774;28;20025;-83
2023/08/07 09:10:29;;;;;;;3.45;1.42;;;;;;;;;;5062330;28;20033;-84
2023/08/07 09:13:00;;;;;;;4.70;1.48;;;;;;;;;;5056545;28;20033;-83
2023/08/07 09:15:27;;;;;;;2.38;1.35;;;;;;;;;;5057546;28;20029;-84
2023/08/07 09:17:54;;;;;;;4.13;1.40;;;;;;;;;;5059954;28;20036;-83
2023/08/07 09:20:20;;;;;;;1.58;1.20;;;;;;;;;;5042908;28;20027;-84
2023/08/07 09:22:46;;;;;;;2.33;1.27;;;;;;;;;;5055541;28;20108;-84
2023/08/07 09:25:11;;;;;;;3.33;1.30;;;;;;;;;;5055214;28;20103;-83
2023/08/07 09:27:38;;;;;;;2.88;1.20;;;;;;;;;;5040119;28;20468;-83
2023/08/07 09:30:06;;;;;;;2.20;1.33;;;;;;;;;;5076211;28;20097;-83
2023/08/07 09:32:31;;;;;;;3.33;1.33;;;;;;;;;;5058353;28;20102;-84
2023/08/07 09:34:57;;;;;;;3.13;1.33;;;;;;;;;;5055278;28;20037;-84
2023/08/07 09:37:23;;;;;;;4.10;1.50;;;;;;;;;;5054788;28;20033;-84
2023/08/07 09:39:48;;;;;;;2.47;1.38;;;;;;;;;;5054578;28;20476;-85
2023/08/07 09:42:15;;;;;;;2.42;1.10;;;;;;;;;;5056250;28;20031;-81
2023/08/07 09:44:41;;;;;;;1.83;1.05;;;;;;;;;;5054712;28;20048;-82
2023/08/07 09:47:14;;;;;;;2.63;1.08;;;;;;;;;;5054801;28;20476;-83
2023/08/07 09:49:39;;;;;;;2.87;1.20;;;;;;;;;;5038017;28;20502;-81
2023/08/07 09:52:09;;;;;;;3.30;1.33;;;;;;;;;;5038256;28;20032;-86
2023/08/07 09:54:36;;;;;;;2.75;1.15;;;;;;;;;;5058639;28;20078;-83
2023/08/07 09:57:02;;;;;;;5.40;1.27;;;;;;;;;;5054839;28;20476;-83
2023/08/07 09:59:27;;;;;;;3.22;1.50;;;;;;;;;;5038784;28;20107;-83
2023/08/07 10:01:54;;;;;;;5.38;1.75;;;;;;;;;;5038657;28;20061;-84
2023/08/07 10:04:21;;;;;;;2.38;1.38;;;;;;;;;;5057962;28;20392;-83
2023/08/07 10:06:46;;;;;;;3.60;1.33;;;;;;;;;;5055701;28;20601;-84
2023/08/07 10:09:12;;;;;;;3.10;1.42;;;;;;;;;;5056169;28;20050;-83
2023/08/07 10:11:39;;;;;;;4.68;1.48;;;;;;;;;;5054952;28;20032;-84
2023/08/07 10:14:05;;;;;;;3.72;1.23;;;;;;;;;;5055468;28;20033;-85
2023/08/07 10:16:30;;;;;;;2.92;1.38;;;;;;;;;;5054667;28;20036;-84
2023/08/07 10:18:56;;;;;;;3.75;1.48;;;;;;;;;;5055856;28;20032;-84
2023/08/07 10:21:22;;;;;;;1.90;1.10;;;;;;;;;;5054502;28;20035;-84
2023/08/07 10:23:48;;;;;;;2.05;1.13;;;;;;;;;;5053966;28;20057;-82
2023/08/07 10:26:14;;;;;;;5.07;1.75;;;;;;;;;;5037584;28;20028;-83
2023/08/07 10:28:40;;;;;;;10.05;1.80;;;;;;;;;;5037295;28;20525;-84
2023/08/07 10:31:11;;;;;;;4.38;1.60;;;;;;;;;;5036813;28;20064;-84
2023/08/07 10:33:36;;;;;;;4.78;1.52;;;;;;;;;;5037020;28;20572;-83
2023/08/07 10:36:08;;;;;;;3.72;1.50;;;;;;;;;;5053812;28;20099;-84
2023/08/07 10:38:35;;;;;;;6.75;1.55;;;;;;;;;;5053993;28;20070;-84
2023/08/07 10:41:14;;;;;;;5.40;1.33;;;;;;;;;;5053457;28;20494;-83
2023/08/07 10:43:41;;;;;;;3.42;1.50;;;;;;;;;;5054172;28;20032;-82
2023/08/07 10:46:10;;;;;;;5.03;1.50;;;;;;;;;;5053916;28;20029;-81
2023/08/07 10:48:40;;;;;;;4.50;1.40;;;;;;;;;;5036645;28;20115;-82
2023/08/07 10:51:06;;;;;;;4.80;1.80;;;;;;;;;;5054148;28;20103;-84
2023/08/07 10:53:36;;;;;;;3.30;1.48;;;;;;;;;;5036693;28;20071;-84
2023/08/07 10:56:08;;;;;;;6.25;1.80;;;;;;;;;;5053221;28;20126;-82
2023/08/07 10:58:36;;;;;;;3.78;1.35;;;;;;;;;;5035536;28;20074;-83
2023/08/07 11:01:21;;;;;;;2.42;1.30;;;;;;;;;;5036446;28;20494;-83
2023/08/07 11:04:07;;;;;;;3.65;1.45;;;;;;;;;;5036270;28;20033;-84
2023/08/07 11:06:34;;;;;;;4.85;1.50;;;;;;;;;;5053416;28;20120;-84
2023/08/07 11:09:02;;;;;;;6.40;1.75;;;;;;;;;;5036191;28;20116;-81
2023/08/07 11:11:28;;;;;;;4.18;1.73;;;;;;;;;;5054760;28;20086;-83
2023/08/07 11:13:54;;;;;;;3.38;1.60;;;;;;;;;;5036271;28;20028;-83
2023/08/07 11:16:22;;;;;;;5.70;2.03;;;;;;;;;;5053189;28;20365;-83
2023/08/07 11:18:48;;;;;;;4.32;1.67;;;;;;;;;;5037087;28;20387;-81
2023/08/07 11:21:14;;;;;;;3.30;1.40;;;;;;;;;;5053186;28;20085;-83
2023/08/07 11:23:40;;;;;;;3.05;1.58;;;;;;;;;;5036265;28;20105;-83
2023/08/07 11:26:06;;;;;;;4.28;1.63;;;;;;;;;;5053148;28;20025;-84
2023/08/07 11:28:32;;;;;;;3.85;1.60;;;;;;;;;;5036193;28;20036;-83
2023/08/07 11:30:58;;;;;;;5.13;1.50;;;;;;;;;;5052311;28;20045;-82
2023/08/07 11:33:24;;;;;;;5.32;1.92;;;;;;;;;;5036097;28;20044;-84
2023/08/07 11:35:50;;;;;;;3.28;1.45;;;;;;;;;;5052591;28;20025;-83
2023/08/07 11:38:33;;;;;;;2.17;1.30;;;;;;;;;;5053996;28;20033;-84
2023/08/07 11:41:06;;;;;;;4.80;1.75;;;;;;;;;;5052344;28;20028;-82
2023/08/07 11:43:35;;;;;;;3.80;1.60;;;;;;;;;;5035726;28;20028;-82
2023/08/07 11:46:02;;;;;;;1.67;1.30;;;;;;;;;;5052542;28;20025;-83
2023/08/07 11:48:28;;;;;;;2.95;1.38;;;;;;;;;;5054781;28;20029;-85
2023/08/07 11:50:54;;;;;;;2.97;1.70;;;;;;;;;;5054764;28;20020;-83
2023/08/07 11:53:25;;;;;;;3.50;1.48;;;;;;;;;;5035665;28;20112;-83
2023/08/07 11:56:05;;;;;;;3.25;1.58;;;;;;;;;;5053859;28;20082;-82
2023/08/07 11:58:47;;;;;;;2.72;1.73;;;;;;;;;;5052381;28;20025;-83
2023/08/07 12:01:17;;;;;;;2.67;1.50;;;;;;;;;;5054578;28;20044;-82
2023/08/07 12:03:52;;;;;;;5.38;2.03;;;;;;;;;;5052451;28;20021;-82
2023/08/07 12:06:17;;;;;;;2.97;1.80;;;;;;;;;;5069457;28;20053;-83
2023/08/07 12:08:43;;;;;;;2.85;1.35;;;;;;;;;;5054870;28;20068;-81
2023/08/07 12:11:10;;;;;;;2.10;1.40;;;;;;;;;;5057937;28;20072;-82
2023/08/07 12:13:44;;;;;;;3.05;1.42;;;;;;;;;;5040456;28;20052;-81
2023/08/07 12:16:15;;;;;;;5.88;1.95;;;;;;;;;;5056793;28;20073;-83
2023/08/07 12:18:42;;;;;;;3.63;1.75;;;;;;;;;;5056818;28;20464;-82
2023/08/07 12:21:08;;;;;;;3.60;1.60;;;;;;;;;;5056085;28;20086;-82
2023/08/07 12:23:34;;;;;;;4.22;1.30;;;;;;;;;;5039537;28;20104;-82
2023/08/07 12:26:00;;;;;;;3.10;1.30;;;;;;;;;;5057338;28;20535;-83
2023/08/07 12:28:25;;;;;;;4.88;1.27;;;;;;;;;;5055839;28;20167;-82
2023/08/07 12:30:51;;;;;;;2.45;1.30;;;;;;;;;;5055456;28;20057;-82
2023/08/07 12:33:18;;;;;;;2.17;1.30;;;;;;;;;;5056508;28;20045;-82
2023/08/07 12:35:44;;;;;;;1.73;1.10;;;;;;;;;;5057446;28;20110;-83
2023/08/07 12:38:10;;;;;;;2.78;1.20;;;;;;;;;;5056868;28;20029;-83
2023/08/07 12:40:36;;;;;;;3.30;1.25;;;;;;;;;;5039029;28;20059;-83
2023/08/07 12:43:02;;;;;;;2.25;1.10;;;;;;;;;;5039133;28;20021;-83
2023/08/07 12:45:28;;;;;;;3.15;1.17;;;;;;;;;;5039077;28;20391;-83
2023/08/07 12:47:53;;;;;;;2.53;1.20;;;;;;;;;;5055738;28;20025;-82
2023/08/07 12:50:19;;;;;;;4.90;1.35;;;;;;;;;;5055732;28;20033;-83
2023/08/07 12:52:44;;;;;;;1.45;1.23;;;;;;;;;;5056712;28;20055;-82
2023/08/07 12:55:11;;;;;;;1.80;1.20;;;;;;;;;;5055843;28;20122;-82
2023/08/07 12:57:37;;;;;;;4.30;1.08;;;;;;;;;;5056850;28;20063;-83
2023/08/07 13:00:04;;;;;;;1.80;1.10;;;;;;;;;;5055431;28;20084;-81
2023/08/07 13:02:30;;;;;;;1.48;1.20;;;;;;;;;;5038961;28;20376;-83
2023/08/07 13:04:57;;;;;;;1.40;1.23;;;;;;;;;;5056638;28;20040;-83
2023/08/07 13:07:22;;;;;;;2.53;1.33;;;;;;;;;;5056670;28;20040;-83
2023/08/07 13:09:48;;;;;;;2.67;1.30;;;;;;;;;;5055506;28;20430;-83
2023/08/07 13:12:13;;;;;;;2.35;1.20;;;;;;;;;;5054951;28;20040;-82
2023/08/07 13:14:39;;;;;;;4.93;1.77;;;;;;;;;;5056660;28;20029;-82
2023/08/07 13:17:04;;;;;;;5.38;1.52;;;;;;;;;;5055347;28;20520;-83
2023/08/07 13:19:30;;;;;;;2.30;1.10;;;;;;;;;;5055998;28;20495;-82
2023/08/07 13:21:55;;;;;;;2.08;1.48;;;;;;;;;;5056747;28;20438;-82
2023/08/07 13:24:20;;;;;;;2.47;1.23;;;;;;;;;;5056841;28;20056;-82
2023/08/07 13:26:46;;;;;;;3.13;1.27;;;;;;;;;;5056975;28;20529;-82
2023/08/07 13:29:12;;;;;;;3.53;1.30;;;;;;;;;;5057555;28;20028;-85
2023/08/07 13:31:37;;;;;;;1.85;1.17;;;;;;;;;;5038732;28;20048;-82
2023/08/07 13:34:07;;;;;;;2.17;1.20;;;;;;;;;;5056898;28;20087;-82
2023/08/07 13:36:33;;;;;;;3.70;1.60;;;;;;;;;;5056459;28;20029;-82
2023/08/07 13:39:00;;;;;;;6.60;1.40;;;;;;;;;;5055087;28;20025;-82
2023/08/07 13:41:26;;;;;;;1.88;1.10;;;;;;;;;;5038091;28;20479;-82
2023/08/07 13:43:51;;;;;;;3.15;1.10;;;;;;;;;;5054597;28;20117;-82
2023/08/07 13:46:18;;;;;;;4.43;1.27;;;;;;;;;;5054654;28;20036;-82
2023/08/07 13:48:44;;;;;;;3.75;1.48;;;;;;;;;;5054364;28;20029;-82
2023/08/07 13:51:10;;;;;;;2.78;1.25;;;;;;;;;;5054171;28;20035;-82
2023/08/07 13:53:35;;;;;;;1.33;1.05;;;;;;;;;;5054279;28;20208;-82
2023/08/07 13:56:01;;;;;;;2.03;1.65;;;;;;;;;;5054819;28;20055;-81
2023/08/07 13:58:27;;;;;;;3.63;1.30;;;;;;;;;;5054519;28;20495;-82
2023/08/07 14:00:53;;;;;;;2.75;1.38;;;;;;;;;;5054022;28;20033;-82
2023/08/07 14:03:18;;;;;;;1.55;0.98;;;;;;;;;;5055473;28;20043;-82
2023/08/07 14:05:43;;;;;;;1.83;1.13;;;;;;;;;;5054187;28;20028;-82
2023/08/07 14:08:10;;;;;;;1.75;1.30;;;;;;;;;;5037483;28;20033;-82
2023/08/07 14:10:36;;;;;;;1.77;1.10;;;;;;;;;;5054287;28;20491;-83
2023/08/07 14:13:02;;;;;;;1.38;0.98;;;;;;;;;;5037377;28;20060;-81
2023/08/07 14:15:27;;;;;;;2.10;1.15;;;;;;;;;;5055522;28;20052;-82
2023/08/07 14:17:53;;;;;;;9.60;1.27;;;;;;;;;;5037227;28;20116;-82
2023/08/07 14:20:18;;;;;;;2.90;1.25;;;;;;;;;;5054639;28;20053;-82
2023/08/07 14:22:44;;;;;;;2.25;1.40;;;;;;;;;;5055197;28;20037;-81
2023/08/07 14:25:09;;;;;;;1.70;1.20;;;;;;;;;;5054071;28;20067;-82
2023/08/07 14:27:35;;;;;;;2.38;0.98;;;;;;;;;;5053986;28;20052;-82
2023/08/07 14:30:00;;;;;;;1.73;1.20;;;;;;;;;;5055056;28;20060;-83
2023/08/07 14:32:26;;;;;;;2.15;1.10;;;;;;;;;;5053098;28;20060;-82
2023/08/07 14:34:52;;;;;;;1.92;1.35;;;;;;;;;;5054973;28;20021;-82
2023/08/07 14:37:17;;;;;;;3.50;1.20;;;;;;;;;;5055432;28;20381;-83
2023/08/07 14:39:42;;;;;;;2.38;1.15;;;;;;;;;;5054793;28;20032;-82